Terminal Aerodrome Forecast
Issued by NWS Charleston, WV

Current Version | Previous Version | Text Only | Print | Product List | Glossary Off
Versions: 1 2 3 4 5 6 7 8 9 10 11 12 13 14 15 16 17 18 19 20 21 22 23 24 25

736
FTUS41 KRLX 270901 AAA
TAFEKN
TAF AMD
KEKN 270901Z 2709/2806 VRB03KT 6SM BR FEW250
     FM271100 VRB03KT 4SM BR FEW250
     FM271300 17005KT P6SM FEW250
     FM271600 19010G18KT P6SM SCT250
     FM271900 20009G18KT P6SM BKN060
     FM272100 19010G21KT 3SM SHRA VCTS OVC050CB
     FM272300 21008KT P6SM BKN050
     FM280300 26004KT P6SM BKN025=

USA.gov is the U.S. government's official web portal to all federal, state and local government web resources and services.